Terminal Aerodrome Forecast
Issued by NWS

Home | Current Version | Previous Version | Text Only | Print | Product List | Glossary On
Versions: 1 2 3 4 5 6 7 8 9 10 11 12 13
999
FTUS41 KLWX 221724
TAFMTN
TAF
KMTN 221724Z 2218/2318 12004KT P6SM SCT150
     FM230800 14004KT 3SM BR BKN250
     FM230900 13004KT 1 1/2SM BR BKN250
     FM231100 VRB03KT 1/2SM FG OVC025
     FM231200 VRB03KT 1SM BR OVC010
     FM231300 15004KT 2SM BR OVC035
     FM231400 15005KT P6SM BKN060
     FM231700 16009KT P6SM BKN045=

USA.gov is the U.S. government's official web portal to all federal, state and local government web resources and services.